createdAt,value
2018-02-04T00:01:11.212Z,3.30
2018-02-04T00:03:38.805Z,3.40
2018-02-04T00:06:06.373Z,3.30
2018-02-04T00:08:33.960Z,3.40
2018-02-04T00:11:01.529Z,3.30
2018-02-04T00:13:29.125Z,3.40
2018-02-04T00:15:56.684Z,3.30
2018-02-04T00:18:24.264Z,3.30
2018-02-04T00:20:51.825Z,3.30
2018-02-04T00:23:19.404Z,3.10
2018-02-04T00:25:46.968Z,3.10
2018-02-04T00:28:14.558Z,3.10
2018-02-04T00:30:42.116Z,3.10
2018-02-04T00:33:09.733Z,3.20
2018-02-04T00:35:37.307Z,3.30
2018-02-04T00:38:04.905Z,3.30
2018-02-04T00:40:32.464Z,3.30
2018-02-04T00:43:00.052Z,3.30
2018-02-04T00:45:27.616Z,3.30
2018-02-04T00:47:55.193Z,3.30
2018-02-04T00:50:22.821Z,3.40
2018-02-04T00:52:50.378Z,3.50
2018-02-04T00:55:17.964Z,3.50
2018-02-04T00:57:45.524Z,3.40
2018-02-04T01:00:13.109Z,3.50
2018-02-04T01:02:40.672Z,3.70
2018-02-04T01:05:09.020Z,3.40
2018-02-04T01:07:36.591Z,3.40
2018-02-04T01:10:04.181Z,3.40
2018-02-04T01:12:31.745Z,3.30
2018-02-04T01:14:59.327Z,3.40
2018-02-04T01:17:26.894Z,3.40
2018-02-04T01:19:54.481Z,3.30
2018-02-04T01:22:22.044Z,3.30
2018-02-04T01:24:49.632Z,3.30
2018-02-04T01:27:17.960Z,3.30
2018-02-04T01:29:45.551Z,3.30
2018-02-04T01:32:13.132Z,3.40
2018-02-04T01:34:40.713Z,3.50
2018-02-04T01:37:08.275Z,3.50
2018-02-04T01:39:35.899Z,3.40
2018-02-04T01:42:03.448Z,3.30
2018-02-04T01:44:31.036Z,3.30
2018-02-04T01:46:58.600Z,3.30
2018-02-04T01:49:26.183Z,3.20
2018-02-04T01:51:53.747Z,3.20
2018-02-04T01:54:21.338Z,3.10
2018-02-04T01:56:48.904Z,3.10
2018-02-04T01:59:16.495Z,3.10
2018-02-04T02:01:44.064Z,3.00
2018-02-04T02:04:11.648Z,3.00
2018-02-04T02:06:39.238Z,3.10
2018-02-04T02:09:06.807Z,3.10
2018-02-04T02:11:34.394Z,3.00
2018-02-04T02:14:01.952Z,3.10
2018-02-04T02:16:29.533Z,3.10
2018-02-04T02:18:57.101Z,3.00
2018-02-04T02:21:24.689Z,3.10
2018-02-04T02:23:52.252Z,3.10
2018-02-04T02:26:20.597Z,3.10
2018-02-04T02:28:48.151Z,3.10
2018-02-04T02:31:15.737Z,3.20
2018-02-04T02:33:43.293Z,3.20
2018-02-04T02:36:10.882Z,3.30
2018-02-04T02:38:38.453Z,3.30
2018-02-04T02:41:06.042Z,3.30
2018-02-04T02:43:33.605Z,3.30
2018-02-04T02:46:01.196Z,3.20
2018-02-04T02:48:29.528Z,3.30
2018-02-04T02:50:57.113Z,3.20
2018-02-04T02:53:24.689Z,3.20
2018-02-04T02:55:52.284Z,3.20
2018-02-04T02:58:19.850Z,3.20
2018-02-04T03:00:47.434Z,3.20
2018-02-04T03:03:14.994Z,3.20
2018-02-04T03:05:42.579Z,3.20
2018-02-04T03:08:10.135Z,3.20
2018-02-04T03:10:37.721Z,3.10
2018-02-04T03:13:05.286Z,3.10
2018-02-04T03:15:32.872Z,3.20
2018-02-04T03:18:00.433Z,3.20
2018-02-04T03:20:27.986Z,3.30
2018-02-04T03:22:55.575Z,3.30
2018-02-04T03:25:23.137Z,3.20
2018-02-04T03:27:50.720Z,3.20
2018-02-04T03:30:19.040Z,3.20
2018-02-04T03:32:46.622Z,3.20
2018-02-04T03:35:14.189Z,3.30
2018-02-04T03:37:41.776Z,3.40
2018-02-04T03:40:10.097Z,3.40
2018-02-04T03:42:37.699Z,3.40
2018-02-04T03:45:05.257Z,3.40
2018-02-04T03:47:32.835Z,3.40
2018-02-04T03:50:01.157Z,3.40
2018-02-04T03:52:28.736Z,3.40
2018-02-04T03:54:56.283Z,3.40
2018-02-04T03:57:23.889Z,3.50
2018-02-04T03:59:52.221Z,3.40
2018-02-04T04:02:19.809Z,3.40
2018-02-04T04:04:47.377Z,3.50
2018-02-04T04:07:14.965Z,3.50
2018-02-04T04:09:42.533Z,3.50
2018-02-04T04:12:10.116Z,3.50
2018-02-04T04:14:37.676Z,3.50
2018-02-04T04:17:05.260Z,3.40
2018-02-04T04:19:32.826Z,3.40
2018-02-04T04:22:00.415Z,3.40
2018-02-04T04:24:27.976Z,3.30
2018-02-04T04:26:55.560Z,3.30
2018-02-04T04:29:23.126Z,3.40
2018-02-04T04:31:50.717Z,3.50
2018-02-04T04:34:18.273Z,3.50
2018-02-04T04:36:45.837Z,3.50
2018-02-04T04:39:13.416Z,3.40
2018-02-04T04:41:41.748Z,3.40
2018-02-04T04:44:09.335Z,3.30
2018-02-04T04:46:37.660Z,3.60
2018-02-04T04:49:05.240Z,3.50
2018-02-04T04:51:32.809Z,3.50
2018-02-04T04:54:00.384Z,3.50
2018-02-04T04:56:27.940Z,3.40
2018-02-04T04:58:55.528Z,3.40
2018-02-04T05:01:23.080Z,3.40
2018-02-04T05:03:50.664Z,3.40
2018-02-04T05:06:18.215Z,3.40
2018-02-04T05:08:45.804Z,3.40
2018-02-04T05:11:13.363Z,3.50
2018-02-04T05:13:40.943Z,3.50
2018-02-04T05:16:08.505Z,3.40
2018-02-04T05:18:36.079Z,3.40
2018-02-04T05:21:04.405Z,3.40
2018-02-04T05:23:31.982Z,3.40
2018-02-04T05:25:59.544Z,3.50
2018-02-04T05:28:27.128Z,3.40
2018-02-04T05:30:54.685Z,3.50
2018-02-04T05:33:22.281Z,3.60
2018-02-04T05:35:49.835Z,3.50
2018-02-04T05:38:17.412Z,3.30
2018-02-04T05:40:44.972Z,3.40
2018-02-04T05:43:12.553Z,3.40
2018-02-04T05:45:40.115Z,3.40
2018-02-04T05:48:09.354Z,3.40
2018-02-04T05:50:36.913Z,3.40
2018-02-04T05:53:04.492Z,3.20
2018-02-04T05:55:32.057Z,3.20
2018-02-04T05:58:00.410Z,3.40
2018-02-04T06:00:27.968Z,3.40
2018-02-04T06:02:55.556Z,3.50
2018-02-04T06:05:23.116Z,3.50
2018-02-04T06:07:50.672Z,3.40
2018-02-04T06:10:18.247Z,3.40
2018-02-04T06:12:45.817Z,3.40
2018-02-04T06:15:13.397Z,3.20
2018-02-04T06:17:40.965Z,3.10
2018-02-04T06:20:09.321Z,3.00
2018-02-04T06:22:36.901Z,3.00
2018-02-04T06:25:04.490Z,3.30
2018-02-04T06:27:32.078Z,3.40
2018-02-04T06:29:59.653Z,3.40
2018-02-04T06:32:27.213Z,3.40
2018-02-04T06:34:54.833Z,3.40
2018-02-04T06:37:22.388Z,3.50
2018-02-04T06:39:49.973Z,3.50
2018-02-04T06:42:17.527Z,3.40
2018-02-04T06:44:45.106Z,3.30
2018-02-04T06:47:12.671Z,3.30
2018-02-04T06:49:40.257Z,3.40
2018-02-04T06:52:08.593Z,3.40
2018-02-04T06:54:36.178Z,3.30
2018-02-04T06:57:04.501Z,3.30
2018-02-04T06:59:32.081Z,3.30
2018-02-04T07:01:59.642Z,3.30
2018-02-04T07:04:27.231Z,3.30
2018-02-04T07:06:54.797Z,3.30
2018-02-04T07:09:22.404Z,3.20
2018-02-04T07:11:49.956Z,3.20
2018-02-04T07:14:17.553Z,3.20
2018-02-04T07:16:45.126Z,3.20
2018-02-04T07:19:12.684Z,3.20
2018-02-04T07:21:40.278Z,3.20
2018-02-04T07:24:07.854Z,3.10
2018-02-04T07:26:35.432Z,3.00
2018-02-04T07:29:02.996Z,3.10
2018-02-04T07:31:30.588Z,3.10
2018-02-04T07:33:58.151Z,3.20
2018-02-04T07:36:26.507Z,3.30
2018-02-04T07:38:54.093Z,3.30
2018-02-04T07:41:22.479Z,3.30
2018-02-04T07:43:50.057Z,3.40
2018-02-04T07:46:17.640Z,3.40
2018-02-04T07:48:45.200Z,3.40
2018-02-04T07:51:12.792Z,3.40
2018-02-04T07:53:40.357Z,3.50
2018-02-04T07:56:07.976Z,3.60
2018-02-04T07:58:35.544Z,3.70
2018-02-04T08:01:03.225Z,3.60
2018-02-04T08:03:30.797Z,3.60
2018-02-04T08:05:59.140Z,3.50
2018-02-04T08:08:26.700Z,3.50
2018-02-04T08:10:54.287Z,3.50
2018-02-04T08:13:22.619Z,3.50
2018-02-04T08:15:51.033Z,3.50
2018-02-04T08:18:18.618Z,3.60
2018-02-04T08:20:46.210Z,3.70
2018-02-04T08:23:13.772Z,3.70
2018-02-04T08:25:41.361Z,3.60
2018-02-04T08:28:08.917Z,3.60
2018-02-04T08:30:36.482Z,3.70
2018-02-04T08:33:04.101Z,3.70
2018-02-04T08:35:31.673Z,3.70
2018-02-04T08:37:59.269Z,3.80
2018-02-04T08:40:26.845Z,3.70
2018-02-04T08:42:55.195Z,3.80
2018-02-04T08:45:22.759Z,3.80
2018-02-04T08:47:50.342Z,3.90
2018-02-04T08:50:17.899Z,4.00
2018-02-04T08:52:46.240Z,4.10
2018-02-04T08:55:13.855Z,4.10
2018-02-04T08:57:41.413Z,4.10
2018-02-04T09:00:08.976Z,4.10
2018-02-04T09:02:36.552Z,4.20
2018-02-04T09:05:04.108Z,4.20
2018-02-04T09:07:31.693Z,4.40
2018-02-04T09:09:59.250Z,4.60
2018-02-04T09:12:26.835Z,4.80
2018-02-04T09:14:55.736Z,5.10
2018-02-04T09:17:23.311Z,5.10
2018-02-04T09:19:50.876Z,5.20
2018-02-04T09:22:18.464Z,5.30
2018-02-04T09:24:46.029Z,5.30
2018-02-04T09:27:13.621Z,5.40
2018-02-04T09:29:41.184Z,5.40
2018-02-04T09:32:09.547Z,5.30
2018-02-04T09:34:37.104Z,5.40
2018-02-04T09:37:04.660Z,5.40
2018-02-04T09:39:32.242Z,5.40
2018-02-04T09:42:00.569Z,5.70
2018-02-04T09:44:28.152Z,5.70
2018-02-04T09:46:55.711Z,5.80
2018-02-04T09:49:23.284Z,5.80
2018-02-04T09:51:50.836Z,5.80
2018-02-04T09:54:18.420Z,5.90
2018-02-04T09:56:45.988Z,6.00
2018-02-04T09:59:13.592Z,6.00
2018-02-04T10:01:41.156Z,6.00
2018-02-04T10:04:08.747Z,6.00
2018-02-04T10:06:37.072Z,6.10
2018-02-04T10:09:04.648Z,6.10
2018-02-04T10:11:32.209Z,6.20
2018-02-04T10:13:59.812Z,6.30
2018-02-04T10:16:27.377Z,6.40
2018-02-04T10:18:54.964Z,6.40
2018-02-04T10:21:22.719Z,6.50
2018-02-04T10:23:50.483Z,6.50
2018-02-04T10:26:18.041Z,6.60
2018-02-04T10:28:45.620Z,6.60
2018-02-04T10:31:13.184Z,6.60
2018-02-04T10:33:40.772Z,6.50
2018-02-04T10:36:08.334Z,6.50
2018-02-04T10:38:36.685Z,6.50
2018-02-04T10:41:04.246Z,6.50
2018-02-04T10:43:31.837Z,6.50
2018-02-04T10:45:59.392Z,6.40
2018-02-04T10:48:27.748Z,6.60
2018-02-04T10:51:16.189Z,6.60
2018-02-04T10:53:43.778Z,6.60
2018-02-04T10:56:12.109Z,6.60
2018-02-04T10:58:39.700Z,6.60
2018-02-04T11:01:07.265Z,6.60
2018-02-04T11:03:34.848Z,6.60
2018-02-04T11:06:02.414Z,6.60
2018-02-04T11:08:29.977Z,6.60
2018-02-04T11:10:57.570Z,6.50
2018-02-04T11:13:25.136Z,6.50
2018-02-04T11:15:52.729Z,6.50
2018-02-04T11:18:21.065Z,6.60
2018-02-04T11:20:48.657Z,6.60
2018-02-04T11:23:16.980Z,6.50
2018-02-04T11:25:44.560Z,6.50
2018-02-04T11:28:12.125Z,6.60
2018-02-04T11:30:39.724Z,6.60
2018-02-04T11:33:08.058Z,6.50
2018-02-04T11:35:35.655Z,6.50
2018-02-04T11:38:03.232Z,6.60
2018-02-04T11:40:30.812Z,6.60
2018-02-04T11:42:58.373Z,6.40
2018-02-04T11:45:25.960Z,6.40
2018-02-04T11:47:53.529Z,6.20
2018-02-04T11:50:21.116Z,6.10
2018-02-04T11:52:49.447Z,5.90
2018-02-04T11:55:17.038Z,5.90
2018-02-04T11:57:45.366Z,5.70
2018-02-04T12:00:12.943Z,5.70
2018-02-04T12:02:40.508Z,5.50
2018-02-04T12:05:08.098Z,5.30
2018-02-04T12:07:36.780Z,5.20
2018-02-04T12:10:05.138Z,5.10
2018-02-04T12:12:32.709Z,5.10
2018-02-04T12:15:00.295Z,5.10
2018-02-04T12:17:27.852Z,5.20
2018-02-04T12:19:55.444Z,5.00
2018-02-04T12:22:23.016Z,5.00
2018-02-04T12:24:50.577Z,4.80
2018-02-04T12:27:18.207Z,4.70
2018-02-04T12:29:45.768Z,4.50
2018-02-04T12:32:13.342Z,4.40
2018-02-04T12:34:40.897Z,4.40
2018-02-04T12:37:08.494Z,4.30
2018-02-04T12:39:36.058Z,4.30
2018-02-04T12:42:03.650Z,4.20
2018-02-04T12:44:31.208Z,4.20
2018-02-04T12:46:58.792Z,4.10
2018-02-04T12:49:26.353Z,4.10
2018-02-04T12:51:53.941Z,3.90
2018-02-04T12:54:21.501Z,3.90
2018-02-04T12:56:49.082Z,4.00
2018-02-04T12:59:17.577Z,3.80
2018-02-04T13:01:45.416Z,3.80
2018-02-04T13:04:13.736Z,3.80
2018-02-04T13:06:41.330Z,3.80
2018-02-04T13:09:08.884Z,3.80
2018-02-04T13:11:36.471Z,3.90
2018-02-04T13:14:04.804Z,3.80
2018-02-04T13:16:32.384Z,3.80
2018-02-04T13:18:59.955Z,3.80
2018-02-04T13:21:27.532Z,3.80
2018-02-04T13:23:55.853Z,3.60
2018-02-04T13:26:23.442Z,3.60
2018-02-04T13:28:51.037Z,3.70
2018-02-04T13:31:18.605Z,3.90
2018-02-04T13:33:46.196Z,3.80
2018-02-04T13:36:13.761Z,3.70
2018-02-04T13:38:41.349Z,3.80
2018-02-04T13:41:08.912Z,3.80
2018-02-04T13:43:36.506Z,3.80
2018-02-04T13:46:04.072Z,3.80
2018-02-04T13:48:31.656Z,3.60
2018-02-04T13:50:59.228Z,3.60
2018-02-04T13:53:26.849Z,3.50
2018-02-04T13:55:54.409Z,3.60
2018-02-04T13:58:21.989Z,3.70
2018-02-04T14:00:50.470Z,3.70
2018-02-04T14:03:18.053Z,3.70
2018-02-04T14:05:45.667Z,3.70
2018-02-04T14:08:13.237Z,3.70
2018-02-04T14:10:40.808Z,3.90
2018-02-04T14:13:08.391Z,3.80
2018-02-04T14:15:35.948Z,3.80
2018-02-04T14:18:03.536Z,3.90
2018-02-04T14:20:31.105Z,3.90
2018-02-04T14:22:58.693Z,3.90
2018-02-04T14:25:26.262Z,3.80
2018-02-04T14:27:53.844Z,3.80
2018-02-04T14:30:21.432Z,3.80
2018-02-04T14:32:49.829Z,4.00
2018-02-04T14:35:17.387Z,4.00
2018-02-04T14:37:44.978Z,3.90
2018-02-04T14:40:13.324Z,3.90
2018-02-04T14:42:40.933Z,3.90
2018-02-04T14:45:08.496Z,3.90
2018-02-04T14:47:36.084Z,3.90
2018-02-04T14:50:04.450Z,3.70
2018-02-04T14:52:31.996Z,3.70
2018-02-04T14:54:59.592Z,3.80
2018-02-04T14:57:27.156Z,3.70
2018-02-04T14:59:54.732Z,3.70
2018-02-04T15:02:22.288Z,3.80
2018-02-04T15:04:49.868Z,3.90
2018-02-04T15:07:17.426Z,3.90
2018-02-04T15:09:45.015Z,3.80
2018-02-04T15:12:12.575Z,3.80
2018-02-04T15:14:40.929Z,3.90
2018-02-04T15:17:08.492Z,3.90
2018-02-04T15:19:36.072Z,3.80
2018-02-04T15:22:03.637Z,3.80
2018-02-04T15:24:31.989Z,3.70
2018-02-04T15:26:59.548Z,3.70
2018-02-04T15:29:27.179Z,3.60
2018-02-04T15:31:54.725Z,3.70
2018-02-04T15:34:22.318Z,3.70
2018-02-04T15:36:50.713Z,3.70
2018-02-04T15:39:18.309Z,3.50
2018-02-04T15:41:45.881Z,3.40
2018-02-04T15:44:13.473Z,3.50
2018-02-04T15:46:41.069Z,3.60
2018-02-04T15:49:09.429Z,3.50
2018-02-04T15:51:37.001Z,3.50
2018-02-04T15:54:04.640Z,3.70
2018-02-04T15:56:32.264Z,3.50
2018-02-04T15:58:59.848Z,3.40
2018-02-04T16:01:27.417Z,3.30
2018-02-04T16:03:55.005Z,3.20
2018-02-04T16:06:23.336Z,3.20
2018-02-04T16:08:50.938Z,3.20
2018-02-04T16:11:18.502Z,3.20
2018-02-04T16:13:46.082Z,3.20
2018-02-04T16:16:13.715Z,3.20
2018-02-04T16:18:41.285Z,3.10
2018-02-04T16:21:08.868Z,3.10
2018-02-04T16:23:36.433Z,3.00
2018-02-04T16:26:04.012Z,3.00
2018-02-04T16:28:31.572Z,3.00
2018-02-04T16:30:59.161Z,2.90
2018-02-04T16:33:27.488Z,2.90
2018-02-04T16:35:55.070Z,2.90
2018-02-04T16:38:22.672Z,2.90
2018-02-04T16:40:50.452Z,2.90
2018-02-04T16:43:18.018Z,2.90
2018-02-04T16:45:45.610Z,3.20
2018-02-04T16:48:13.185Z,3.10
2018-02-04T16:50:41.578Z,3.00
2018-02-04T16:53:09.907Z,3.10
2018-02-04T16:55:37.497Z,3.10
2018-02-04T16:58:05.092Z,3.10
2018-02-04T17:00:32.673Z,3.10
2018-02-04T17:03:00.238Z,3.10
2018-02-04T17:05:27.820Z,3.00
2018-02-04T17:07:55.418Z,3.00
2018-02-04T17:10:23.009Z,2.80
2018-02-04T17:12:50.623Z,2.80
2018-02-04T17:15:18.200Z,2.80
2018-02-04T17:17:46.524Z,2.70
2018-02-04T17:20:15.062Z,2.70
2018-02-04T17:22:42.624Z,2.70
2018-02-04T17:25:10.218Z,2.80
2018-02-04T17:27:37.816Z,2.70
2018-02-04T17:30:05.431Z,2.60
2018-02-04T17:32:33.008Z,2.60
2018-02-04T17:35:00.581Z,2.70
2018-02-04T17:37:28.210Z,2.60
2018-02-04T17:39:55.777Z,2.80
2018-02-04T17:42:23.410Z,2.70
2018-02-04T17:44:51.014Z,2.80
2018-02-04T17:47:18.596Z,2.90
2018-02-04T17:49:46.962Z,2.60
2018-02-04T17:52:14.541Z,2.50
2018-02-04T17:54:42.173Z,2.50
2018-02-04T17:57:09.732Z,2.50
2018-02-04T17:59:37.307Z,2.40
2018-02-04T18:02:04.888Z,2.30
2018-02-04T18:04:32.499Z,2.40
2018-02-04T18:07:00.312Z,2.20
2018-02-04T18:09:27.874Z,2.30
2018-02-04T18:11:55.470Z,2.40
2018-02-04T18:14:23.833Z,2.40
2018-02-04T18:16:51.430Z,2.40
2018-02-04T18:19:19.001Z,2.30
2018-02-04T18:21:47.364Z,2.40
2018-02-04T18:24:14.929Z,2.30
2018-02-04T18:26:42.526Z,2.40
2018-02-04T18:29:10.352Z,2.40
2018-02-04T18:31:38.043Z,2.30
2018-02-04T18:34:05.834Z,2.30
2018-02-04T18:36:33.457Z,2.30
2018-02-04T18:39:01.915Z,2.40
2018-02-04T18:41:29.489Z,2.30
2018-02-04T18:43:59.205Z,2.40
2018-02-04T18:46:26.811Z,2.40
2018-02-04T18:48:54.446Z,2.30
2018-02-04T18:51:22.584Z,2.40
2018-02-04T18:53:50.292Z,2.30
2018-02-04T18:56:17.956Z,2.30
2018-02-04T18:58:45.566Z,2.30
2018-02-04T19:01:13.137Z,2.20
2018-02-04T19:03:40.745Z,2.20
2018-02-04T19:06:08.323Z,2.20
2018-02-04T19:08:36.057Z,2.30
2018-02-04T19:11:03.624Z,2.30
2018-02-04T19:13:31.208Z,2.30
2018-02-04T19:15:58.876Z,2.30
2018-02-04T19:18:26.447Z,2.40
2018-02-04T19:20:54.009Z,2.40
2018-02-04T19:23:21.593Z,2.30
2018-02-04T19:25:50.519Z,2.40
2018-02-04T19:28:18.933Z,2.30
2018-02-04T19:30:46.552Z,2.30
2018-02-04T19:33:14.136Z,2.30
2018-02-04T19:35:41.726Z,2.40
2018-02-04T19:38:09.378Z,2.40
2018-02-04T19:40:36.990Z,2.40
2018-02-04T19:43:04.604Z,2.30
2018-02-04T19:45:32.184Z,2.20
2018-02-04T19:47:59.801Z,2.30
2018-02-04T19:50:27.733Z,2.30
2018-02-04T19:52:56.017Z,2.40
2018-02-04T19:55:23.650Z,2.30
2018-02-04T19:57:51.973Z,2.40
2018-02-04T20:00:19.570Z,2.40
2018-02-04T20:02:47.896Z,2.30
2018-02-04T20:05:16.246Z,2.30
2018-02-04T20:07:43.823Z,2.30
2018-02-04T20:10:11.405Z,2.30
2018-02-04T20:12:39.023Z,2.30
2018-02-04T20:15:06.609Z,2.30
2018-02-04T20:17:34.225Z,2.30
2018-02-04T20:20:01.866Z,2.30
2018-02-04T20:22:29.445Z,2.30
2018-02-04T20:24:57.096Z,2.30
2018-02-04T20:27:24.702Z,2.20
2018-02-04T20:29:52.285Z,2.30
2018-02-04T20:32:31.566Z,2.40
2018-02-04T20:34:59.153Z,2.30
2018-02-04T20:37:26.755Z,2.20
2018-02-04T20:39:54.406Z,2.30
2018-02-04T20:42:21.974Z,2.30
2018-02-04T20:44:49.569Z,2.30
2018-02-04T20:47:17.191Z,2.20
2018-02-04T20:49:44.836Z,2.20
2018-02-04T20:52:12.457Z,2.20
2018-02-04T20:54:40.096Z,2.30
2018-02-04T20:57:07.657Z,2.30
2018-02-04T20:59:35.313Z,2.30
2018-02-04T21:02:02.881Z,2.30
2018-02-04T21:04:30.495Z,2.30
2018-02-04T21:06:58.123Z,2.30
2018-02-04T21:09:25.746Z,2.20
2018-02-04T21:11:54.103Z,2.30
2018-02-04T21:14:21.672Z,2.30
2018-02-04T21:16:49.257Z,2.30
2018-02-04T21:19:16.861Z,2.20
2018-02-04T21:21:44.507Z,2.10
2018-02-04T21:24:12.068Z,2.20
2018-02-04T21:26:39.708Z,2.10
2018-02-04T21:29:07.310Z,2.10
2018-02-04T21:31:34.943Z,2.00
2018-02-04T21:34:02.514Z,2.00
2018-02-04T21:36:30.157Z,2.00
2018-02-04T21:38:57.767Z,2.00
2018-02-04T21:41:25.362Z,2.00
2018-02-04T21:43:52.972Z,1.90
2018-02-04T21:46:20.564Z,2.00
2018-02-04T21:48:48.943Z,1.90
2018-02-04T21:51:17.304Z,1.90
2018-02-04T21:53:45.669Z,1.90
2018-02-04T21:56:13.308Z,1.90
2018-02-04T21:58:41.799Z,2.00
2018-02-04T22:01:09.392Z,2.00
2018-02-04T22:03:36.998Z,2.00
2018-02-04T22:06:04.669Z,2.00
2018-02-04T22:08:33.000Z,1.90
2018-02-04T22:11:00.592Z,1.90
2018-02-04T22:13:28.151Z,2.00
2018-02-04T22:15:55.732Z,2.00
2018-02-04T22:18:23.306Z,1.90
2018-02-04T22:20:50.911Z,1.90
2018-02-04T22:23:18.473Z,2.00
2018-02-04T22:25:46.040Z,2.00
2018-02-04T22:28:13.629Z,2.00
2018-02-04T22:30:42.701Z,2.00
2018-02-04T22:33:10.288Z,2.00
2018-02-04T22:35:37.861Z,2.00
2018-02-04T22:38:05.464Z,2.00
2018-02-04T22:40:33.035Z,2.10
2018-02-04T22:43:00.637Z,2.00
2018-02-04T22:45:28.977Z,2.00
2018-02-04T22:47:56.568Z,2.00
2018-02-04T22:50:24.157Z,2.00
2018-02-04T22:52:51.749Z,2.10
2018-02-04T22:55:19.317Z,2.10
2018-02-04T22:57:46.901Z,1.90
2018-02-04T23:00:14.460Z,2.10
2018-02-04T23:02:42.085Z,1.90
2018-02-04T23:05:09.649Z,2.00
2018-02-04T23:07:37.240Z,2.10
2018-02-04T23:10:04.851Z,1.90
2018-02-04T23:12:32.436Z,1.80
2018-02-04T23:14:59.998Z,1.90
2018-02-04T23:17:27.597Z,1.60
2018-02-04T23:19:55.166Z,1.50
2018-02-04T23:22:22.752Z,1.30
2018-02-04T23:24:50.313Z,1.30
2018-02-04T23:27:17.904Z,1.20
2018-02-04T23:29:45.468Z,1.10
2018-02-04T23:32:13.058Z,1.00
2018-02-04T23:34:41.380Z,0.90
2018-02-04T23:37:08.972Z,0.80
2018-02-04T23:39:36.546Z,0.80
2018-02-04T23:42:04.140Z,0.70
2018-02-04T23:44:31.696Z,0.60
2018-02-04T23:46:59.251Z,0.60
2018-02-04T23:49:26.833Z,0.70
2018-02-04T23:51:54.402Z,0.70
2018-02-04T23:54:21.991Z,0.60
2018-02-04T23:56:49.559Z,0.40
2018-02-04T23:59:17.922Z,0.30
